Thunder radar more information blitzortung!


Löydät sääaseman tiedot myös:

European Weather Network

Finland Weather Exchange

Weather Underground

AWEKAS



Weather Underground säähistoriasivu

Päivittäin yhteenveto Huhtikuu 10, 2017 Yksiköt:  Englantilaiset    Metriset   Molemmat
« Edellinen Päivä
Seuraava Päivä »
Päivittäin Viikoittain Kuukausittain Vuosittain Mukautettu
  Korkea: Matala: Keskiarvo:
Lämpötila: TemperatureC °F 1.3 °F 4.4 °F
Kastepiste: DewpointC °F 0.6 °F 3.4 °F
Kosteus: Humidity % 88 % 92 %
Tuulen nopeus: WindSpeedKMH mph 0.0 mph 5.2 mph
Tuulenpuuska: WindSpeedGustKMH mph - -
Tuuli:- - SSW
Ilmanpaine: PressurehPa in 983.3 in -
Sade: 0.0 in    
Historical Graphs
 
 
Taulukkotiedot Huhtikuu 10, 2017
Aika Lämpötila Kastepiste Ilmanpaine Tuuli Tuulen nopeus Tuulenpuuska Kosteus Sademäärä (tunneittain)
TemperatureC °F DewpointC °F PressurehPa in Calm     Humidity % HourlyPrecipMM in
00:00 5.0 °F 3.2 °F 1003.6 in SSW 6.4 mph 14.5 mph 88 % 0.0 in
00:15 4.8 °F 3.0 °F 1003.6 in SSW 4.8 mph 12.9 mph 88 % 0.0 in
00:30 4.6 °F 3.0 °F 1003.3 in SSW 6.4 mph 12.9 mph 89 % 0.0 in
00:45 4.5 °F 2.8 °F 1003.3 in SSW 3.2 mph 12.9 mph 89 % 0.0 in
01:00 4.3 °F 2.7 °F 1003.3 in SSW 1.6 mph 8.0 mph 89 % 0.0 in
01:15 4.2 °F 2.6 °F 1002.9 in SSW 1.6 mph 6.4 mph 89 % 0.0 in
01:30 4.0 °F 2.5 °F 1002.9 in Calm   4.8 mph 90 % 0.0 in
01:45 3.9 °F 2.4 °F 1002.6 in SSW 3.2 mph 9.7 mph 90 % 0.0 in
02:00 3.8 °F 2.5 °F 1002.3 in Calm   8.0 mph 91 % 0.0 in
02:15 3.9 °F 2.6 °F 1002.3 in SSW 4.8 mph 9.7 mph 91 % 0.0 in
02:30 4.1 °F 2.6 °F 1001.9 in SSW 3.2 mph 9.7 mph 90 % 0.0 in
02:45 4.1 °F 2.6 °F 1001.6 in SSW 3.2 mph 8.0 mph 90 % 0.0 in
03:00 4.0 °F 2.5 °F 1001.2 in SSW 3.2 mph 9.7 mph 90 % 0.0 in
03:15 4.1 °F 2.6 °F 1000.9 in SSW 3.2 mph 8.0 mph 90 % 0.0 in
03:30 4.2 °F 2.6 °F 1000.9 in SW 3.2 mph 9.7 mph 89 % 0.0 in
03:45 4.2 °F 2.5 °F 1000.6 in SW 1.6 mph 6.4 mph 89 % 0.0 in
04:00 4.1 °F 2.4 °F 1000.2 in Calm   4.8 mph 89 % 0.0 in
04:15 3.9 °F 2.4 °F 999.9 in SW 1.6 mph 6.4 mph 90 % 0.0 in
04:30 3.7 °F 2.2 °F 999.9 in SW 1.6 mph 6.4 mph 90 % 0.0 in
04:45 3.6 °F 2.1 °F 999.5 in Calm   6.4 mph 90 % 0.0 in
05:00 3.3 °F 1.8 °F 999.2 in Calm   6.4 mph 90 % 0.0 in
05:15 3.2 °F 1.9 °F 999.2 in Calm   3.2 mph 91 % 0.0 in
05:30 3.0 °F 1.7 °F 998.9 in Calm   6.4 mph 91 % 0.0 in
05:45 2.8 °F 1.5 °F 998.5 in Calm   1.6 mph 91 % 0.0 in
06:00 2.7 °F 1.3 °F 998.5 in Calm   3.2 mph 91 % 0.0 in
06:15 2.5 °F 1.2 °F 997.9 in Calm   6.4 mph 91 % 0.0 in
06:30 2.4 °F 1.1 °F 997.9 in Calm   1.6 mph 91 % 0.0 in
06:45 2.4 °F 1.3 °F 997.5 in Calm   6.4 mph 92 % 0.0 in
07:00 2.4 °F 1.3 °F 997.2 in Calm   6.4 mph 92 % 0.0 in
07:15 2.6 °F 1.4 °F 996.8 in Calm   8.0 mph 92 % 0.0 in
07:30 2.8 °F 1.6 °F 996.5 in Calm   6.4 mph 92 % 0.0 in
07:45 2.9 °F 1.8 °F 996.5 in Calm   6.4 mph 92 % 0.0 in
08:00 3.7 °F 2.5 °F 996.2 in SSW 3.2 mph 11.3 mph 92 % 0.0 in
08:15 4.4 °F 2.9 °F 996.2 in SSW 6.4 mph 12.9 mph 90 % 0.0 in
08:30 4.6 °F 3.0 °F 995.8 in SSW 4.8 mph 12.9 mph 89 % 0.0 in
08:45 4.7 °F 3.1 °F 995.5 in SSW 4.8 mph 11.3 mph 89 % 0.0 in
09:00 4.8 °F 3.1 °F 995.1 in SSW 3.2 mph 12.9 mph 89 % 0.0 in
09:15 4.8 °F 3.3 °F 995.1 in South 4.8 mph 14.5 mph 90 % 0.0 in
09:30 4.8 °F 3.3 °F 994.8 in SSW 9.7 mph 17.7 mph 90 % 0.0 in
09:45 4.8 °F 3.3 °F 994.8 in South 6.4 mph 19.3 mph 90 % 0.0 in
10:00 5.0 °F 3.7 °F 994.5 in SSW 6.4 mph 17.7 mph 91 % 0.0 in
10:15 5.1 °F 3.9 °F 994.5 in SSW 8.0 mph 17.7 mph 92 % 0.0 in
10:30 5.2 °F 4.0 °F 993.8 in SSW 6.4 mph 17.7 mph 92 % 0.0 in
10:45 5.3 °F 4.2 °F 993.8 in South 8.0 mph 17.7 mph 93 % 0.0 in
11:00 5.5 °F 4.5 °F 993.5 in SSW 9.7 mph 25.7 mph 93 % 0.0 in
11:15 5.7 °F 4.6 °F 993.1 in SSW 8.0 mph 17.7 mph 93 % 0.0 in
11:30 5.7 °F 4.7 °F 992.8 in SSW 8.0 mph 16.1 mph 93 % 0.0 in
11:45 5.8 °F 4.8 °F 992.4 in SSW 6.4 mph 19.3 mph 93 % 0.0 in
12:00 5.9 °F 4.9 °F 992.1 in SSW 8.0 mph 20.9 mph 93 % 0.0 in
12:15 5.9 °F 5.1 °F 991.8 in SSW 4.8 mph 17.7 mph 94 % 0.0 in
12:30 5.9 °F 5.2 °F 991.4 in South 4.8 mph 14.5 mph 95 % 0.0 in
12:45 6.0 °F 5.3 °F 990.7 in South 3.2 mph 16.1 mph 95 % 0.0 in
13:00 6.1 °F 5.3 °F 990.4 in South 3.2 mph 12.9 mph 95 % 0.0 in
13:15 6.1 °F 5.5 °F 990.7 in SSW 6.4 mph 14.5 mph 96 % 0.0 in
13:30 6.2 °F 5.6 °F 990.7 in SSW 8.0 mph 16.1 mph 96 % 0.0 in
13:45 6.3 °F 5.6 °F 989.4 in SSW 9.7 mph 24.1 mph 95 % 0.0 in
14:00 6.4 °F 5.6 °F 988.7 in South 6.4 mph 14.5 mph 95 % 0.0 in
14:15 6.5 °F 5.8 °F 988.7 in SSW 6.4 mph 14.5 mph 95 % 0.0 in
14:30 6.5 °F 5.8 °F 988.0 in South 4.8 mph 19.3 mph 95 % 0.0 in
14:45 6.5 °F 5.8 °F 987.7 in South 6.4 mph 16.1 mph 95 % 0.0 in
15:00 6.6 °F 5.9 °F 987.4 in SSW 6.4 mph 17.7 mph 95 % 0.0 in
15:15 6.6 °F 5.8 °F 987.4 in SSW 9.7 mph 30.6 mph 95 % 0.0 in
15:30 6.5 °F 5.6 °F 987.0 in SSW 11.3 mph 20.9 mph 94 % 0.0 in
15:45 6.4 °F 5.5 °F 986.7 in SSW 9.7 mph 24.1 mph 94 % 0.0 in
16:00 6.3 °F 5.4 °F 986.7 in SSW 9.7 mph 27.4 mph 94 % 0.0 in
16:15 6.2 °F 5.5 °F 986.3 in SSW 11.3 mph 25.7 mph 95 % 0.0 in
16:30 6.2 °F 5.4 °F 986.0 in SSW 11.3 mph 24.1 mph 95 % 0.0 in
16:45 6.0 °F 5.3 °F 986.0 in SSW 11.3 mph 20.9 mph 95 % 0.0 in
17:00 5.7 °F 4.8 °F 985.7 in SSW 11.3 mph 20.9 mph 94 % 0.0 in
17:15 5.4 °F 4.5 °F 985.3 in SSW 11.3 mph 27.4 mph 94 % 0.0 in
17:30 5.4 °F 4.6 °F 985.0 in SSW 8.0 mph 19.3 mph 94 % 0.0 in
17:45 5.6 °F 4.8 °F 984.6 in SSW 9.7 mph 20.9 mph 95 % 0.0 in
18:00 5.7 °F 4.9 °F 984.6 in SSW 8.0 mph 16.1 mph 95 % 0.0 in
18:15 5.6 °F 4.9 °F 984.3 in SSW 11.3 mph 22.5 mph 95 % 0.0 in
18:30 5.5 °F 4.8 °F 984.6 in SSW 11.3 mph 29.0 mph 95 % 0.0 in
18:45 5.3 °F 4.5 °F 984.3 in SSW 8.0 mph 22.5 mph 95 % 0.0 in
19:00 4.8 °F 4.1 °F 984.3 in SSW 9.7 mph 27.4 mph 95 % 0.0 in
19:15 4.7 °F 4.1 °F 984.0 in SSW 8.0 mph 16.1 mph 96 % 0.0 in
19:30 4.6 °F 4.0 °F 984.0 in SSW 6.4 mph 16.1 mph 96 % 0.0 in
19:45 4.4 °F 3.8 °F 983.6 in SSW 9.7 mph 22.5 mph 96 % 0.0 in
20:00 4.3 °F 3.7 °F 983.6 in SSW 9.7 mph 22.5 mph 96 % 0.0 in
20:15 4.2 °F 3.6 °F 983.6 in SSW 6.4 mph 19.3 mph 96 % 0.0 in
20:30 4.1 °F 3.5 °F 983.6 in SSW 6.4 mph 17.7 mph 96 % 0.0 in
20:45 3.9 °F 3.4 °F 983.6 in SSW 6.4 mph 16.1 mph 96 % 0.0 in
21:00 3.7 °F 3.1 °F 983.3 in SW 4.8 mph 11.3 mph 96 % 0.0 in
21:15 3.4 °F 2.9 °F 983.3 in SSW 6.4 mph 12.9 mph 96 % 0.0 in
21:30 3.1 °F 2.3 °F 983.3 in SW 3.2 mph 12.9 mph 95 % 0.0 in
21:45 2.8 °F 2.1 °F 983.3 in SSW 4.8 mph 11.3 mph 95 % 0.0 in
22:00 2.7 °F 2.1 °F 983.3 in SW 3.2 mph 12.9 mph 96 % 0.0 in
22:15 2.6 °F 2.0 °F 983.3 in SW 4.8 mph 11.3 mph 96 % 0.0 in
22:30 2.6 °F 2.0 °F 983.3 in SSW 3.2 mph 12.9 mph 96 % 0.0 in
22:45 2.4 °F 1.9 °F 983.3 in SW 4.8 mph 12.9 mph 96 % 0.0 in
23:00 2.3 °F 1.7 °F 983.3 in SW 4.8 mph 12.9 mph 96 % 0.0 in
23:15 2.0 °F 1.3 °F 983.6 in SW 4.8 mph 14.5 mph 95 % 0.0 in
23:30 1.6 °F 0.8 °F 983.6 in WSW 3.2 mph 12.9 mph 95 % 0.0 in
23:45 1.3 °F 0.6 °F 983.6 in SW 1.6 mph 6.4 mph 95 % 0.0 in
Esan sääasema
Terveisin Weather Underground - 2.75 mb

Alkuperäinen skripti  Jim McMurry - jmcmurry@mwt.net Sovitettu myös templatelle  Wim van der Kuil - Leuven-Template.eu

Laitteet joita käytämme:

Sääasema
Davis VP2

Sääasemaohjelma
Cumulus

Sääaseman tietokone
Asus EeePC

Palveluntarjoaja
Suncomet

Davis VP2

Cumulus

Asus EeePC

Suncomet